sensor_id;sensor_type;location;lat;lon;timestamp;pressure;altitude;pressure_sealevel;temperature;humidity
23016;BME280;11674;52.428;13.584;2023-05-23T00:01:16;100886.72;;;19.99;38.04
23016;BME280;11674;52.428;13.584;2023-05-23T00:06:23;100888.25;;;19.96;38.23
23016;BME280;11674;52.428;13.584;2023-05-23T00:11:30;100889.91;;;19.97;38.73
23016;BME280;11674;52.428;13.584;2023-05-23T00:16:39;100885.94;;;19.98;38.81
23016;BME280;11674;52.428;13.584;2023-05-23T00:21:46;100889.91;;;19.97;38.48
23016;BME280;11674;52.428;13.584;2023-05-23T00:26:53;100883.00;;;19.95;38.72
23016;BME280;11674;52.428;13.584;2023-05-23T00:32:00;100878.03;;;19.92;38.64
23016;BME280;11674;52.428;13.584;2023-05-23T00:37:07;100867.56;;;19.80;39.02
23016;BME280;11674;52.428;13.584;2023-05-23T00:42:14;100863.94;;;19.68;39.11
23016;BME280;11674;52.428;13.584;2023-05-23T00:47:21;100863.66;;;19.61;39.42
23016;BME280;11674;52.428;13.584;2023-05-23T00:52:28;100861.28;;;19.51;39.42
23016;BME280;11674;52.428;13.584;2023-05-23T00:57:36;100857.19;;;19.48;40.02
23016;BME280;11674;52.428;13.584;2023-05-23T01:02:45;100844.38;;;19.39;40.14
23016;BME280;11674;52.428;13.584;2023-05-23T01:07:53;100851.28;;;19.29;39.92
23016;BME280;11674;52.428;13.584;2023-05-23T01:18:15;100829.44;;;19.26;40.50
23016;BME280;11674;52.428;13.584;2023-05-23T01:28:44;100825.31;;;19.24;40.71
23016;BME280;11674;52.428;13.584;2023-05-23T01:33:51;100821.97;;;19.30;40.28
23016;BME280;11674;52.428;13.584;2023-05-23T01:39:00;100825.72;;;19.34;40.19
23016;BME280;11674;52.428;13.584;2023-05-23T01:44:08;100819.38;;;19.37;40.49
23016;BME280;11674;52.428;13.584;2023-05-23T01:49:15;100813.41;;;19.39;40.43
23016;BME280;11674;52.428;13.584;2023-05-23T01:54:27;100815.19;;;19.43;40.88
23016;BME280;11674;52.428;13.584;2023-05-23T01:59:34;100804.75;;;19.44;40.79
23016;BME280;11674;52.428;13.584;2023-05-23T02:04:41;100802.16;;;19.39;40.91
23016;BME280;11674;52.428;13.584;2023-05-23T02:09:49;100807.56;;;19.44;40.91
23016;BME280;11674;52.428;13.584;2023-05-23T02:14:56;100803.59;;;19.45;41.03
23016;BME280;11674;52.428;13.584;2023-05-23T02:20:05;100806.88;;;19.47;40.93
23016;BME280;11674;52.428;13.584;2023-05-23T02:25:12;100809.81;;;19.50;40.94
23016;BME280;11674;52.428;13.584;2023-05-23T02:30:19;100809.47;;;19.52;41.16
23016;BME280;11674;52.428;13.584;2023-05-23T02:35:26;100809.47;;;19.52;40.88
23016;BME280;11674;52.428;13.584;2023-05-23T02:40:34;100794.69;;;19.43;41.02
23016;BME280;11674;52.428;13.584;2023-05-23T02:45:40;100793.72;;;19.39;40.97
23016;BME280;11674;52.428;13.584;2023-05-23T02:50:48;100791.25;;;19.37;41.24
23016;BME280;11674;52.428;13.584;2023-05-23T02:55:55;100786.47;;;19.38;41.04
23016;BME280;11674;52.428;13.584;2023-05-23T03:01:03;100790.78;;;19.35;41.46
23016;BME280;11674;52.428;13.584;2023-05-23T03:06:09;100786.91;;;19.28;41.44
23016;BME280;11674;52.428;13.584;2023-05-23T03:11:17;100793.59;;;19.23;41.58
23016;BME280;11674;52.428;13.584;2023-05-23T03:16:23;100784.03;;;19.16;41.81
23016;BME280;11674;52.428;13.584;2023-05-23T03:21:31;100796.47;;;19.15;41.78
23016;BME280;11674;52.428;13.584;2023-05-23T03:26:38;100806.81;;;19.23;41.75
23016;BME280;11674;52.428;13.584;2023-05-23T03:31:45;100813.41;;;19.27;41.95
23016;BME280;11674;52.428;13.584;2023-05-23T03:36:52;100810.03;;;19.33;41.73
23016;BME280;11674;52.428;13.584;2023-05-23T03:42:00;100796.66;;;19.42;42.07
23016;BME280;11674;52.428;13.584;2023-05-23T03:47:07;100801.00;;;19.40;42.09
23016;BME280;11674;52.428;13.584;2023-05-23T03:52:16;100785.06;;;19.44;41.83
23016;BME280;11674;52.428;13.584;2023-05-23T03:57:30;100789.28;;;19.50;42.36
23016;BME280;11674;52.428;13.584;2023-05-23T04:02:37;100777.06;;;19.46;42.11
23016;BME280;11674;52.428;13.584;2023-05-23T04:07:45;100767.56;;;19.38;42.39
23016;BME280;11674;52.428;13.584;2023-05-23T04:12:52;100760.41;;;19.29;42.26
23016;BME280;11674;52.428;13.584;2023-05-23T04:18:00;100769.25;;;19.19;42.78
23016;BME280;11674;52.428;13.584;2023-05-23T04:23:08;100780.72;;;19.14;42.54
23016;BME280;11674;52.428;13.584;2023-05-23T04:28:18;100794.72;;;19.22;42.81
23016;BME280;11674;52.428;13.584;2023-05-23T04:33:25;100798.63;;;19.30;42.77
23016;BME280;11674;52.428;13.584;2023-05-23T04:38:32;100793.69;;;19.27;42.81
23016;BME280;11674;52.428;13.584;2023-05-23T04:43:39;100794.78;;;19.14;42.68
23016;BME280;11674;52.428;13.584;2023-05-23T04:48:52;100781.44;;;19.11;43.17
23016;BME280;11674;52.428;13.584;2023-05-23T04:54:01;100778.53;;;19.19;43.14
23016;BME280;11674;52.428;13.584;2023-05-23T04:59:08;100766.44;;;19.19;43.05
23016;BME280;11674;52.428;13.584;2023-05-23T05:04:14;100766.59;;;19.22;42.87
23016;BME280;11674;52.428;13.584;2023-05-23T05:09:22;100776.75;;;19.15;43.48
23016;BME280;11674;52.428;13.584;2023-05-23T05:14:30;100783.53;;;19.14;43.33
23016;BME280;11674;52.428;13.584;2023-05-23T05:19:37;100783.53;;;19.14;43.63
23016;BME280;11674;52.428;13.584;2023-05-23T05:24:43;100770.19;;;19.11;43.60
23016;BME280;11674;52.428;13.584;2023-05-23T05:29:51;100762.63;;;19.03;44.05
23016;BME280;11674;52.428;13.584;2023-05-23T05:34:59;100767.38;;;19.11;44.44
23016;BME280;11674;52.428;13.584;2023-05-23T05:40:07;100781.56;;;19.14;44.57
23016;BME280;11674;52.428;13.584;2023-05-23T05:45:16;100791.59;;;19.03;44.62
23016;BME280;11674;52.428;13.584;2023-05-23T05:50:24;100800.00;;;18.91;44.52
23016;BME280;11674;52.428;13.584;2023-05-23T05:55:31;100807.38;;;18.96;44.87
23016;BME280;11674;52.428;13.584;2023-05-23T06:00:38;100808.34;;;19.00;44.82
23016;BME280;11674;52.428;13.584;2023-05-23T06:05:45;100810.75;;;18.89;45.51
23016;BME280;11674;52.428;13.584;2023-05-23T06:10:51;100805.41;;;18.76;45.48
23016;BME280;11674;52.428;13.584;2023-05-23T06:16:00;100797.81;;;18.76;46.17
23016;BME280;11674;52.428;13.584;2023-05-23T06:21:07;100799.44;;;18.77;46.34
23016;BME280;11674;52.428;13.584;2023-05-23T06:26:15;100795.88;;;18.68;46.87
23016;BME280;11674;52.428;13.584;2023-05-23T06:31:21;100785.19;;;18.82;46.95
23016;BME280;11674;52.428;13.584;2023-05-23T06:36:28;100781.47;;;18.90;47.26
23016;BME280;11674;52.428;13.584;2023-05-23T06:41:35;100781.41;;;18.99;47.77
23016;BME280;11674;52.428;13.584;2023-05-23T06:46:46;100783.41;;;19.10;47.63
23016;BME280;11674;52.428;13.584;2023-05-23T06:51:53;100791.69;;;19.27;47.80
23016;BME280;11674;52.428;13.584;2023-05-23T06:57:00;100796.09;;;19.49;47.92
23016;BME280;11674;52.428;13.584;2023-05-23T07:02:07;100798.59;;;19.74;47.98
23016;BME280;11674;52.428;13.584;2023-05-23T07:07:15;100790.97;;;19.99;48.03
23016;BME280;11674;52.428;13.584;2023-05-23T07:12:23;100789.81;;;20.12;48.08
23016;BME280;11674;52.428;13.584;2023-05-23T07:17:30;100777.91;;;20.42;47.95
23016;BME280;11674;52.428;13.584;2023-05-23T07:22:37;100786.53;;;20.73;47.88
23016;BME280;11674;52.428;13.584;2023-05-23T07:27:44;100790.38;;;20.69;47.68
23016;BME280;11674;52.428;13.584;2023-05-23T07:32:51;100790.09;;;20.98;47.08
23016;BME280;11674;52.428;13.584;2023-05-23T07:37:58;100781.03;;;21.20;46.96
23016;BME280;11674;52.428;13.584;2023-05-23T07:43:05;100781.44;;;21.34;46.37
23016;BME280;11674;52.428;13.584;2023-05-23T07:48:12;100782.81;;;21.55;46.43
23016;BME280;11674;52.428;13.584;2023-05-23T07:53:19;100774.03;;;21.88;46.24
23016;BME280;11674;52.428;13.584;2023-05-23T07:58:26;100765.31;;;22.12;45.94
23016;BME280;11674;52.428;13.584;2023-05-23T08:03:34;100777.00;;;22.45;45.06
23016;BME280;11674;52.428;13.584;2023-05-23T08:08:47;100778.94;;;22.75;44.98
23016;BME280;11674;52.428;13.584;2023-05-23T08:13:54;100787.13;;;22.99;44.34
23016;BME280;11674;52.428;13.584;2023-05-23T08:19:21;100785.28;;;23.26;43.66
23016;BME280;11674;52.428;13.584;2023-05-23T08:24:28;100786.66;;;23.35;43.06
23016;BME280;11674;52.428;13.584;2023-05-23T08:29:35;100790.44;;;23.43;42.28
23016;BME280;11674;52.428;13.584;2023-05-23T08:34:42;100782.34;;;23.22;42.29
23016;BME280;11674;52.428;13.584;2023-05-23T08:39:49;100799.56;;;23.33;41.94
23016;BME280;11674;52.428;13.584;2023-05-23T08:45:09;100808.78;;;23.30;41.12
23016;BME280;11674;52.428;13.584;2023-05-23T08:50:17;100814.69;;;23.02;41.06
23016;BME280;11674;52.428;13.584;2023-05-23T08:55:27;100814.38;;;23.07;41.09
23016;BME280;11674;52.428;13.584;2023-05-23T09:00:35;100812.81;;;23.29;40.84
23016;BME280;11674;52.428;13.584;2023-05-23T09:05:43;100822.53;;;23.28;40.77
23016;BME280;11674;52.428;13.584;2023-05-23T09:10:50;100830.59;;;23.26;40.92
23016;BME280;11674;52.428;13.584;2023-05-23T09:21:12;100838.53;;;23.39;41.13
23016;BME280;11674;52.428;13.584;2023-05-23T09:26:37;100833.38;;;23.45;41.13
23016;BME280;11674;52.428;13.584;2023-05-23T09:31:46;100834.19;;;23.45;40.89
23016;BME280;11674;52.428;13.584;2023-05-23T09:36:54;100831.88;;;23.51;41.58
23016;BME280;11674;52.428;13.584;2023-05-23T09:42:04;100825.66;;;23.64;41.52
23016;BME280;11674;52.428;13.584;2023-05-23T09:47:11;100836.84;;;23.57;41.96
23016;BME280;11674;52.428;13.584;2023-05-23T09:52:18;100833.28;;;23.83;42.26
23016;BME280;11674;52.428;13.584;2023-05-23T09:57:25;100841.81;;;24.05;42.72
23016;BME280;11674;52.428;13.584;2023-05-23T10:07:54;100835.78;;;24.07;42.86
23016;BME280;11674;52.428;13.584;2023-05-23T10:13:02;100828.00;;;24.04;43.02
23016;BME280;11674;52.428;13.584;2023-05-23T10:18:18;100831.47;;;23.94;42.78
23016;BME280;11674;52.428;13.584;2023-05-23T10:23:28;100833.13;;;23.95;42.88
23016;BME280;11674;52.428;13.584;2023-05-23T10:28:35;100832.44;;;24.01;42.72
23016;BME280;11674;52.428;13.584;2023-05-23T10:33:55;100836.19;;;24.09;43.19
23016;BME280;11674;52.428;13.584;2023-05-23T10:44:22;100841.41;;;23.84;44.79
23016;BME280;11674;52.428;13.584;2023-05-23T10:49:44;100836.09;;;24.02;44.91
23016;BME280;11674;52.428;13.584;2023-05-23T10:54:52;100844.53;;;23.98;45.36
23016;BME280;11674;52.428;13.584;2023-05-23T11:00:00;100849.16;;;23.87;45.88
23016;BME280;11674;52.428;13.584;2023-05-23T11:05:23;100858.25;;;23.55;46.37
23016;BME280;11674;52.428;13.584;2023-05-23T11:10:30;100863.50;;;23.15;48.02
23016;BME280;11674;52.428;13.584;2023-05-23T11:15:42;100874.56;;;23.04;48.82
23016;BME280;11674;52.428;13.584;2023-05-23T11:20:52;100861.53;;;23.00;49.26
23016;BME280;11674;52.428;13.584;2023-05-23T11:25:59;100872.59;;;23.24;49.38
23016;BME280;11674;52.428;13.584;2023-05-23T11:31:06;100869.28;;;23.60;49.43
23016;BME280;11674;52.428;13.584;2023-05-23T11:36:13;100868.56;;;23.63;49.80
23016;BME280;11674;52.428;13.584;2023-05-23T11:41:21;100882.06;;;23.50;49.82
23016;BME280;11674;52.428;13.584;2023-05-23T11:46:28;100877.78;;;23.41;49.87
23016;BME280;11674;52.428;13.584;2023-05-23T11:51:35;100864.69;;;23.33;50.12
23016;BME280;11674;52.428;13.584;2023-05-23T11:56:42;100882.56;;;22.99;50.58
23016;BME280;11674;52.428;13.584;2023-05-23T12:01:49;100886.00;;;22.73;51.20
23016;BME280;11674;52.428;13.584;2023-05-23T12:06:56;100910.94;;;22.52;51.49
23016;BME280;11674;52.428;13.584;2023-05-23T12:12:03;100904.75;;;22.00;52.50
23016;BME280;11674;52.428;13.584;2023-05-23T12:17:10;100903.50;;;21.86;53.01
23016;BME280;11674;52.428;13.584;2023-05-23T12:22:24;100905.91;;;21.99;53.12
23016;BME280;11674;52.428;13.584;2023-05-23T12:27:33;100910.47;;;21.61;53.95
23016;BME280;11674;52.428;13.584;2023-05-23T12:32:41;100899.84;;;21.42;54.20
23016;BME280;11674;52.428;13.584;2023-05-23T12:37:55;100904.41;;;21.19;54.72
23016;BME280;11674;52.428;13.584;2023-05-23T12:43:02;100902.44;;;21.35;55.00
23016;BME280;11674;52.428;13.584;2023-05-23T12:48:09;100903.16;;;21.72;54.96
23016;BME280;11674;52.428;13.584;2023-05-23T12:53:16;100906.81;;;21.88;54.66
23016;BME280;11674;52.428;13.584;2023-05-23T12:58:23;100910.19;;;21.78;54.30
23016;BME280;11674;52.428;13.584;2023-05-23T13:03:30;100915.75;;;21.62;54.41
23016;BME280;11674;52.428;13.584;2023-05-23T13:08:37;100926.94;;;21.59;54.84
23016;BME280;11674;52.428;13.584;2023-05-23T13:13:45;100919.63;;;21.42;54.53
23016;BME280;11674;52.428;13.584;2023-05-23T13:18:52;100928.94;;;21.31;54.93
23016;BME280;11674;52.428;13.584;2023-05-23T13:23:59;100924.88;;;21.16;54.80
23016;BME280;11674;52.428;13.584;2023-05-23T13:29:06;100920.31;;;21.12;54.78
23016;BME280;11674;52.428;13.584;2023-05-23T13:34:13;100928.09;;;21.03;54.76
23016;BME280;11674;52.428;13.584;2023-05-23T13:39:20;100927.38;;;21.06;54.81
23016;BME280;11674;52.428;13.584;2023-05-23T13:44:27;100939.38;;;21.03;54.71
23016;BME280;11674;52.428;13.584;2023-05-23T13:49:34;100951.84;;;20.90;55.48
23016;BME280;11674;52.428;13.584;2023-05-23T13:54:41;100945.84;;;20.91;55.23
23016;BME280;11674;52.428;13.584;2023-05-23T13:59:48;100951.59;;;21.07;55.23
23016;BME280;11674;52.428;13.584;2023-05-23T14:04:55;100948.31;;;21.05;54.83
23016;BME280;11674;52.428;13.584;2023-05-23T14:10:02;100960.78;;;20.80;55.28
23016;BME280;11674;52.428;13.584;2023-05-23T14:15:09;100974.03;;;20.43;56.06
23016;BME280;11674;52.428;13.584;2023-05-23T14:20:17;100968.84;;;20.21;57.06
23016;BME280;11674;52.428;13.584;2023-05-23T14:25:24;100973.81;;;20.24;56.59
23016;BME280;11674;52.428;13.584;2023-05-23T14:30:31;100967.69;;;20.34;57.00
23016;BME280;11674;52.428;13.584;2023-05-23T14:35:38;100973.22;;;20.31;57.11
23016;BME280;11674;52.428;13.584;2023-05-23T14:40:45;100976.13;;;20.22;57.34
23016;BME280;11674;52.428;13.584;2023-05-23T14:45:52;100977.44;;;20.25;57.27
23016;BME280;11674;52.428;13.584;2023-05-23T14:50:59;100980.25;;;20.25;57.39
23016;BME280;11674;52.428;13.584;2023-05-23T14:56:06;100990.22;;;20.10;57.79
23016;BME280;11674;52.428;13.584;2023-05-23T15:01:13;101006.84;;;20.03;58.19
23016;BME280;11674;52.428;13.584;2023-05-23T15:06:20;101007.56;;;19.80;58.94
23016;BME280;11674;52.428;13.584;2023-05-23T15:11:27;101009.84;;;19.66;59.33
23016;BME280;11674;52.428;13.584;2023-05-23T15:16:34;101010.75;;;19.58;59.47
23016;BME280;11674;52.428;13.584;2023-05-23T15:21:41;101015.81;;;19.64;59.46
23016;BME280;11674;52.428;13.584;2023-05-23T15:26:48;101014.72;;;19.57;59.83
23016;BME280;11674;52.428;13.584;2023-05-23T15:31:55;101029.69;;;19.49;59.67
23016;BME280;11674;52.428;13.584;2023-05-23T15:37:02;101036.00;;;18.96;59.60
23016;BME280;11674;52.428;13.584;2023-05-23T15:42:09;101044.38;;;18.38;60.43
23016;BME280;11674;52.428;13.584;2023-05-23T15:47:16;101048.38;;;18.03;60.25
23016;BME280;11674;52.428;13.584;2023-05-23T15:52:23;101066.09;;;17.87;60.60
23016;BME280;11674;52.428;13.584;2023-05-23T15:57:31;101036.22;;;17.65;61.52
23016;BME280;11674;52.428;13.584;2023-05-23T16:02:38;101044.63;;;17.57;61.32
23016;BME280;11674;52.428;13.584;2023-05-23T16:07:45;101055.22;;;17.60;61.26
23016;BME280;11674;52.428;13.584;2023-05-23T16:12:52;101061.78;;;17.64;61.29
23016;BME280;11674;52.428;13.584;2023-05-23T16:17:59;101079.63;;;17.68;61.01
23016;BME280;11674;52.428;13.584;2023-05-23T16:23:06;101073.53;;;17.66;61.20
23016;BME280;11674;52.428;13.584;2023-05-23T16:28:13;101087.38;;;17.62;61.12
23016;BME280;11674;52.428;13.584;2023-05-23T16:33:20;101085.88;;;17.48;61.18
23016;BME280;11674;52.428;13.584;2023-05-23T16:38:27;101089.13;;;17.33;61.48
23016;BME280;11674;52.428;13.584;2023-05-23T16:43:34;101096.41;;;17.25;61.31
23016;BME280;11674;52.428;13.584;2023-05-23T16:48:41;101095.38;;;17.13;61.84
23016;BME280;11674;52.428;13.584;2023-05-23T16:53:48;101115.44;;;16.98;61.49
23016;BME280;11674;52.428;13.584;2023-05-23T16:58:55;101114.09;;;16.95;61.84
23016;BME280;11674;52.428;13.584;2023-05-23T17:04:02;101123.63;;;16.86;61.67
23016;BME280;11674;52.428;13.584;2023-05-23T17:09:10;101134.59;;;16.74;61.84
23016;BME280;11674;52.428;13.584;2023-05-23T17:14:17;101144.16;;;16.73;62.13
23016;BME280;11674;52.428;13.584;2023-05-23T17:19:24;101149.41;;;16.66;62.08
23016;BME280;11674;52.428;13.584;2023-05-23T17:24:31;101161.22;;;16.54;62.46
23016;BME280;11674;52.428;13.584;2023-05-23T17:29:38;101147.59;;;16.39;62.39
23016;BME280;11674;52.428;13.584;2023-05-23T17:34:45;101175.97;;;16.24;62.80
23016;BME280;11674;52.428;13.584;2023-05-23T17:39:52;101168.97;;;16.13;62.83
23016;BME280;11674;52.428;13.584;2023-05-23T17:44:59;101185.28;;;15.98;62.60
23016;BME280;11674;52.428;13.584;2023-05-23T17:50:06;101202.44;;;15.83;63.04
23016;BME280;11674;52.428;13.584;2023-05-23T17:55:13;101207.66;;;15.62;62.88
23016;BME280;11674;52.428;13.584;2023-05-23T18:00:20;101211.41;;;15.58;63.40
23016;BME280;11674;52.428;13.584;2023-05-23T18:05:27;101213.88;;;15.59;63.19
23016;BME280;11674;52.428;13.584;2023-05-23T18:10:34;101219.16;;;15.61;63.13
23016;BME280;11674;52.428;13.584;2023-05-23T18:15:41;101215.31;;;15.57;62.89
23016;BME280;11674;52.428;13.584;2023-05-23T18:20:48;101227.03;;;15.59;62.75
23016;BME280;11674;52.428;13.584;2023-05-23T18:25:55;101245.09;;;15.53;62.47
23016;BME280;11674;52.428;13.584;2023-05-23T18:31:02;101252.84;;;15.42;62.54
23016;BME280;11674;52.428;13.584;2023-05-23T18:36:09;101249.53;;;15.40;62.32
23016;BME280;11674;52.428;13.584;2023-05-23T18:41:16;101246.94;;;15.44;62.43
23016;BME280;11674;52.428;13.584;2023-05-23T18:46:23;101266.19;;;15.45;62.44
23016;BME280;11674;52.428;13.584;2023-05-23T18:51:31;101281.22;;;15.49;62.00
23016;BME280;11674;52.428;13.584;2023-05-23T18:56:38;101293.13;;;15.55;61.81
23016;BME280;11674;52.428;13.584;2023-05-23T19:01:45;101294.78;;;15.56;62.01
23016;BME280;11674;52.428;13.584;2023-05-23T19:06:52;101315.09;;;15.48;61.83
23016;BME280;11674;52.428;13.584;2023-05-23T19:11:59;101318.94;;;15.52;61.93
23016;BME280;11674;52.428;13.584;2023-05-23T19:17:06;101326.28;;;15.48;61.67
23016;BME280;11674;52.428;13.584;2023-05-23T19:22:13;101317.78;;;15.39;61.76
23016;BME280;11674;52.428;13.584;2023-05-23T19:27:20;101339.47;;;15.29;62.01
23016;BME280;11674;52.428;13.584;2023-05-23T19:32:27;101333.97;;;15.24;61.61
23016;BME280;11674;52.428;13.584;2023-05-23T19:37:34;101339.84;;;15.22;62.09
23016;BME280;11674;52.428;13.584;2023-05-23T19:42:41;101352.94;;;15.27;62.09
23016;BME280;11674;52.428;13.584;2023-05-23T19:47:48;101356.72;;;15.36;61.90
23016;BME280;11674;52.428;13.584;2023-05-23T19:52:55;101364.69;;;15.42;62.03
23016;BME280;11674;52.428;13.584;2023-05-23T19:58:02;101363.44;;;15.48;62.02
23016;BME280;11674;52.428;13.584;2023-05-23T20:03:16;101366.69;;;15.55;61.99
23016;BME280;11674;52.428;13.584;2023-05-23T20:08:23;101374.34;;;15.63;62.07
23016;BME280;11674;52.428;13.584;2023-05-23T20:13:30;101368.97;;;15.67;61.68
23016;BME280;11674;52.428;13.584;2023-05-23T20:18:37;101375.00;;;15.74;61.97
23016;BME280;11674;52.428;13.584;2023-05-23T20:23:44;101386.50;;;15.86;61.38
23016;BME280;11674;52.428;13.584;2023-05-23T20:28:51;101391.16;;;15.90;61.21
23016;BME280;11674;52.428;13.584;2023-05-23T20:33:58;101397.38;;;15.87;61.34
23016;BME280;11674;52.428;13.584;2023-05-23T20:39:05;101394.38;;;15.84;61.12
23016;BME280;11674;52.428;13.584;2023-05-23T20:44:12;101397.91;;;15.89;60.87
23016;BME280;11674;52.428;13.584;2023-05-23T20:49:19;101409.41;;;15.88;60.66
23016;BME280;11674;52.428;13.584;2023-05-23T20:54:26;101410.63;;;15.82;60.85
23016;BME280;11674;52.428;13.584;2023-05-23T20:59:33;101416.63;;;15.75;60.33
23016;BME280;11674;52.428;13.584;2023-05-23T21:04:40;101415.63;;;15.71;59.69
23016;BME280;11674;52.428;13.584;2023-05-23T21:09:47;101410.41;;;15.65;59.23
23016;BME280;11674;52.428;13.584;2023-05-23T21:14:54;101414.97;;;15.61;58.75
23016;BME280;11674;52.428;13.584;2023-05-23T21:20:01;101420.63;;;15.56;58.49
23016;BME280;11674;52.428;13.584;2023-05-23T21:25:08;101433.69;;;15.47;58.34
23016;BME280;11674;52.428;13.584;2023-05-23T21:30:15;101428.19;;;15.42;58.30
23016;BME280;11674;52.428;13.584;2023-05-23T21:35:22;101435.81;;;15.36;58.15
23016;BME280;11674;52.428;13.584;2023-05-23T21:40:29;101431.88;;;15.19;57.25
23016;BME280;11674;52.428;13.584;2023-05-23T21:45:36;101434.25;;;15.12;57.53
23016;BME280;11674;52.428;13.584;2023-05-23T21:50:43;101439.69;;;15.03;57.29
23016;BME280;11674;52.428;13.584;2023-05-23T21:55:50;101440.63;;;14.99;57.08
23016;BME280;11674;52.428;13.584;2023-05-23T22:00:57;101460.00;;;14.90;57.13
23016;BME280;11674;52.428;13.584;2023-05-23T22:06:04;101451.72;;;14.85;56.89
23016;BME280;11674;52.428;13.584;2023-05-23T22:11:12;101455.19;;;14.77;56.78
23016;BME280;11674;52.428;13.584;2023-05-23T22:16:19;101453.31;;;14.73;56.46
23016;BME280;11674;52.428;13.584;2023-05-23T22:21:26;101462.03;;;14.66;56.36
23016;BME280;11674;52.428;13.584;2023-05-23T22:26:33;101468.53;;;14.62;56.28
23016;BME280;11674;52.428;13.584;2023-05-23T22:31:40;101462.69;;;14.58;55.96
23016;BME280;11674;52.428;13.584;2023-05-23T22:36:47;101472.59;;;14.51;55.78
23016;BME280;11674;52.428;13.584;2023-05-23T22:41:54;101479.34;;;14.45;56.13
23016;BME280;11674;52.428;13.584;2023-05-23T22:47:01;101478.66;;;14.34;55.70
23016;BME280;11674;52.428;13.584;2023-05-23T22:52:08;101485.72;;;14.27;55.75
23016;BME280;11674;52.428;13.584;2023-05-23T22:57:15;101478.06;;;14.14;55.72
23016;BME280;11674;52.428;13.584;2023-05-23T23:02:22;101482.31;;;14.06;55.71
23016;BME280;11674;52.428;13.584;2023-05-23T23:07:29;101486.53;;;14.04;55.37
23016;BME280;11674;52.428;13.584;2023-05-23T23:12:36;101496.63;;;14.00;55.28
23016;BME280;11674;52.428;13.584;2023-05-23T23:17:43;101498.09;;;13.92;55.43
23016;BME280;11674;52.428;13.584;2023-05-23T23:22:50;101486.09;;;13.92;55.32
23016;BME280;11674;52.428;13.584;2023-05-23T23:27:57;101487.03;;;13.82;55.41
23016;BME280;11674;52.428;13.584;2023-05-23T23:33:04;101482.34;;;13.78;55.31
23016;BME280;11674;52.428;13.584;2023-05-23T23:38:11;101487.97;;;13.73;55.06
23016;BME280;11674;52.428;13.584;2023-05-23T23:43:18;101505.03;;;13.66;55.24
23016;BME280;11674;52.428;13.584;2023-05-23T23:48:25;101505.31;;;13.65;55.18
23016;BME280;11674;52.428;13.584;2023-05-23T23:53:32;101490.56;;;13.64;54.89
23016;BME280;11674;52.428;13.584;2023-05-23T23:58:39;101489.44;;;13.65;55.06
